Time;durP1;ratioP1;P1;durP2;ratioP2;P2;SDS_P1;SDS_P2;PMS_P1;PMS_P2;Temp;Humidity;BMP_temperature;BMP_pressure;BME280_temperature;BME280_humidity;BME280_pressure;Samples;Min_cycle;Max_cycle;Signal;HPM_P1;HPM_P2
2021/09/24 00:01:14;;;;;;;;;;;;;;;-144.99;84.45;52460.31;5126513;27;20375;-62
2021/09/24 00:03:42;;;;;;;;;;;;;;;-144.99;84.68;52464.41;5121853;27;19971;-62
2021/09/24 00:06:09;;;;;;;;;;;;;;;-144.99;84.94;52501.09;5116177;28;19946;-62
2021/09/24 00:08:35;;;;;;;;;;;;;;;-144.99;85.14;52468.47;5115987;28;19931;-61
2021/09/24 00:11:01;;;;;;;;;;;;;;;-144.99;85.68;52439.94;5127300;27;20130;-62
2021/09/24 00:13:28;;;;;;;;;;;;;;;-144.99;86.15;52476.63;5109529;28;19948;-62
2021/09/24 00:15:54;;;;;;;;;;;;;;;-144.99;86.44;52480.72;5123094;27;19947;-60
2021/09/24 00:18:21;;;;;;;;;;;;;;;-144.99;86.16;52484.78;5122041;27;19971;-61
2021/09/24 00:20:49;;;;;;;;;;;;;;;-144.99;86.05;52494.97;5117395;27;19941;-60
2021/09/24 00:23:15;;;;;;;;;;;;;;;-144.99;86.41;52456.25;5126097;27;19950;-60
2021/09/24 00:25:42;;;;;;;;;;;;;;;-144.99;86.70;52474.59;5122898;27;19927;-60
2021/09/24 00:28:08;;;;;;;;;;;;;;;-144.99;86.73;52517.41;5117308;27;19954;-62
2021/09/24 00:30:35;;;;;;;;;;;;;;;-144.99;86.93;52458.28;5117420;27;20436;-63
2021/09/24 00:33:01;;;;;;;;;;;;;;;-144.99;87.09;52503.13;5127732;27;20303;-62
2021/09/24 00:35:28;;;;;;;;;;;;;;;-144.99;86.86;52433.81;5130287;27;19946;-62
2021/09/24 00:37:55;;;;;;;;;;;;;;;-144.99;86.93;52480.72;5118583;27;19967;-62
2021/09/24 00:40:22;;;;;;;;;;;;;;;-144.99;87.16;52480.72;5116851;27;19932;-62
2021/09/24 00:42:48;;;;;;;;;;;;;;;-144.99;87.05;52468.47;5121334;27;20459;-61
2021/09/24 00:45:15;;;;;;;;;;;;;;;-144.99;87.61;52494.97;5122497;27;19941;-63
2021/09/24 00:47:41;;;;;;;;;;;;;;;-144.99;87.72;52525.56;5125674;22;19975;-60
2021/09/24 00:50:08;;;;;;;;;;;;;;;-144.99;87.79;52437.91;5051290;28;20109;-60
2021/09/24 00:52:35;;;;;;;;;;;;;;;-144.99;87.93;52484.78;5051353;28;19936;-59
2021/09/24 00:55:04;;;;;;;;;;;;;;;-144.99;88.49;52484.78;5051329;28;19949;-59
2021/09/24 00:57:31;;;;;;;;;;;;;;;-144.99;88.98;52525.56;5052284;28;19971;-60
2021/09/24 00:59:58;;;;;;;;;;;;;;;-144.99;89.29;52484.78;5050528;28;19999;-59
2021/09/24 01:02:24;;;;;;;;;;;;;;;-144.99;89.65;52505.16;5050895;28;19953;-60
2021/09/24 01:04:50;;;;;;;;;;;;;;;-144.99;89.92;52494.97;5050969;28;20387;-60
2021/09/24 01:07:17;;;;;;;;;;;;;;;-144.99;90.19;52501.09;5051611;28;19925;-60
2021/09/24 01:09:43;;;;;;;;;;;;;;;-144.99;90.37;52468.47;5048497;28;20322;-62
2021/09/24 01:12:11;;;;;;;;;;;;;;;-144.99;90.00;52474.59;5044236;28;19948;-62
2021/09/24 01:14:37;;;;;;;;;;;;;;;-144.99;90.27;52456.25;5051182;28;19960;-61
2021/09/24 01:17:04;;;;;;;;;;;;;;;-144.99;90.18;52497.00;5051539;28;19964;-63
2021/09/24 01:19:31;;;;;;;;;;;;;;;-144.99;90.39;52478.66;5050255;28;19952;-62
2021/09/24 01:21:58;;;;;;;;;;;;;;;-144.99;90.33;52480.72;5050373;28;20376;-63
2021/09/24 01:24:25;;;;;;;;;;;;;;;-144.99;90.40;52517.41;5048114;28;20380;-64
2021/09/24 01:26:52;;;;;;;;;;;;;;;-144.99;90.44;52462.34;5051569;28;19948;-62
2021/09/24 01:29:20;;;;;;;;;;;;;;;-144.99;90.48;52456.25;5050084;28;20443;-62
2021/09/24 01:31:46;;;;;;;;;;;;;;;-144.99;90.14;52501.09;5051422;28;19938;-64
2021/09/24 01:34:13;;;;;;;;;;;;;;;-144.99;90.11;52517.41;5049364;28;19925;-63
2021/09/24 01:36:39;;;;;;;;;;;;;;;-144.99;89.90;52460.31;5050606;28;19949;-61
2021/09/24 01:39:08;;;;;;;;;;;;;;;-144.99;89.94;52507.19;5047233;28;20296;-61
2021/09/24 01:41:37;;;;;;;;;;;;;;;-144.99;90.44;52480.72;5051197;28;19945;-61
2021/09/24 01:44:04;;;;;;;;;;;;;;;-144.99;90.74;52468.47;5048332;28;20394;-62
2021/09/24 01:46:30;;;;;;;;;;;;;;;-144.99;90.48;52517.41;5046820;28;19992;-61
2021/09/24 01:48:57;;;;;;;;;;;;;;;-144.99;90.69;52497.00;5046566;28;19990;-62
2021/09/24 01:51:23;;;;;;;;;;;;;;;-144.99;90.86;52480.72;5050616;28;19967;-62
2021/09/24 01:53:50;;;;;;;;;;;;;;;-144.99;91.07;52494.97;5051150;28;19942;-62
2021/09/24 01:56:21;;;;;;;;;;;;;;;-144.99;90.99;52509.25;5049733;28;19938;-60
2021/09/24 01:58:48;;;;;;;;;;;;;;;-144.99;90.93;52501.09;5049945;28;19966;-61
2021/09/24 02:01:14;;;;;;;;;;;;;;;-144.99;91.05;52505.16;5048699;28;19951;-60
2021/09/24 02:03:40;;;;;;;;;;;;;;;-144.99;90.98;52494.97;5051768;28;19939;-61
2021/09/24 02:06:07;;;;;;;;;;;;;;;-144.99;91.30;52513.31;5050001;28;20404;-59
2021/09/24 02:08:33;;;;;;;;;;;;;;;-144.99;91.58;52501.09;5048366;28;20061;-61
2021/09/24 02:11:00;;;;;;;;;;;;;;;-144.99;91.93;52452.16;5047778;28;19991;-59
2021/09/24 02:13:27;;;;;;;;;;;;;;;-144.99;92.10;52507.19;5050350;28;20446;-59
2021/09/24 02:15:54;;;;;;;;;;;;;;;-144.99;92.15;52468.47;5049805;28;20327;-61
2021/09/24 02:18:21;;;;;;;;;;;;;;;-144.99;92.19;52505.16;5051444;28;20281;-62
2021/09/24 02:20:47;;;;;;;;;;;;;;;-144.99;91.82;52480.72;5047669;28;20401;-61
2021/09/24 02:23:16;;;;;;;;;;;;;;;-144.99;91.55;52478.66;5049683;28;20396;-61
2021/09/24 02:25:43;;;;;;;;;;;;;;;-144.99;91.60;52456.25;5050360;28;19935;-63
2021/09/24 02:28:09;;;;;;;;;;;;;;;-144.99;91.68;52488.84;5050301;28;19964;-65
2021/09/24 02:30:37;;;;;;;;;;;;;;;-144.99;91.96;52492.94;5047053;28;19940;-63
2021/09/24 02:33:04;;;;;;;;;;;;;;;-144.99;91.79;52484.78;5049335;28;19955;-61
2021/09/24 02:35:30;;;;;;;;;;;;;;;-144.99;91.87;52497.00;5050098;28;19962;-60
2021/09/24 02:37:56;;;;;;;;;;;;;;;-144.99;91.58;52501.09;5045965;28;20114;-61
2021/09/24 02:40:23;;;;;;;;;;;;;;;-144.99;91.69;52472.56;5048048;28;19946;-60
2021/09/24 02:42:49;;;;;;;;;;;;;;;-144.99;91.84;52507.19;5046285;28;19963;-60
2021/09/24 02:45:15;;;;;;;;;;;;;;;-144.99;92.14;52513.31;5048153;28;20215;-60
2021/09/24 02:47:43;;;;;;;;;;;;;;;-144.99;92.56;52497.00;5046227;28;20442;-60
2021/09/24 02:50:10;;;;;;;;;;;;;;;-144.99;92.47;52478.66;5047622;28;19967;-60
2021/09/24 02:52:37;;;;;;;;;;;;;;;-144.99;92.42;52517.41;5047479;28;19947;-62
2021/09/24 02:55:05;;;;;;;;;;;;;;;-144.99;92.92;52521.47;5047053;28;19950;-62
2021/09/24 02:57:32;;;;;;;;;;;;;;;-144.99;92.90;52525.56;5046244;28;19959;-62
2021/09/24 02:59:58;;;;;;;;;;;;;;;-144.99;92.98;52486.81;5048549;28;19943;-62
2021/09/24 03:02:24;;;;;;;;;;;;;;;-144.99;93.26;52484.78;5049538;28;20004;-62
2021/09/24 03:04:52;;;;;;;;;;;;;;;-144.99;93.70;52497.00;5049129;28;19945;-62
2021/09/24 03:07:19;;;;;;;;;;;;;;;-144.99;93.83;52484.78;5047302;28;19956;-63
2021/09/24 03:09:45;;;;;;;;;;;;;;;-144.99;93.75;52501.09;5047523;28;19945;-63
2021/09/24 03:12:11;;;;;;;;;;;;;;;-144.99;94.30;52505.16;5049678;28;19953;-62
2021/09/24 03:14:38;;;;;;;;;;;;;;;-144.99;94.46;52486.81;5049144;28;19962;-61
2021/09/24 03:17:04;;;;;;;;;;;;;;;-144.99;94.58;52505.16;5048698;28;19956;-63
2021/09/24 03:19:31;;;;;;;;;;;;;;;-144.99;95.02;52480.72;5046374;28;20429;-62
2021/09/24 03:21:58;;;;;;;;;;;;;;;-144.99;95.22;52539.81;5044737;28;19950;-63
2021/09/24 03:24:25;;;;;;;;;;;;;;;-144.99;95.53;52513.31;5048595;28;19960;-61
2021/09/24 03:26:51;;;;;;;;;;;;;;;-144.99;95.53;52497.00;5047445;28;19966;-62
2021/09/24 03:29:18;;;;;;;;;;;;;;;-144.99;95.84;52513.31;5046656;28;19971;-64
2021/09/24 03:31:44;;;;;;;;;;;;;;;-144.99;96.19;52484.78;5049527;28;20349;-63
2021/09/24 03:34:11;;;;;;;;;;;;;;;-144.99;96.46;52484.78;5048636;28;19971;-63
2021/09/24 03:36:37;;;;;;;;;;;;;;;-144.99;96.63;52531.66;5049440;28;19955;-64
2021/09/24 03:39:10;;;;;;;;;;;;;;;-144.99;96.99;52511.28;5045689;28;19989;-63
2021/09/24 03:41:36;;;;;;;;;;;;;;;-144.99;97.72;52456.25;5049654;28;19975;-64
2021/09/24 03:44:03;;;;;;;;;;;;;;;-144.99;98.25;52452.16;5049927;28;20418;-63
2021/09/24 03:46:29;;;;;;;;;;;;;;;-144.99;98.46;52488.84;5045409;28;20066;-62
2021/09/24 03:48:55;;;;;;;;;;;;;;;-144.99;98.77;52472.56;5046761;28;19991;-61
2021/09/24 03:51:22;;;;;;;;;;;;;;;-144.99;99.06;52509.25;5048860;28;20212;-63
2021/09/24 03:53:48;;;;;;;;;;;;;;;-144.99;99.22;52488.84;5053269;28;19973;-63
2021/09/24 03:56:16;;;;;;;;;;;;;;;-144.99;99.14;52501.09;5052375;28;19977;-63
2021/09/24 03:58:42;;;;;;;;;;;;;;;-144.99;98.96;52484.78;5053294;28;20005;-60
2021/09/24 04:01:09;;;;;;;;;;;;;;;-144.99;99.19;52497.00;5051768;28;19969;-61
2021/09/24 04:03:35;;;;;;;;;;;;;;;-144.99;99.33;52480.72;5052449;28;19971;-58
2021/09/24 04:06:01;;;;;;;;;;;;;;;-144.99;99.48;52554.09;5052324;28;20023;-60
2021/09/24 04:08:28;;;;;;;;;;;;;;;-144.99;99.63;52464.41;5050711;28;20483;-61
2021/09/24 04:10:54;;;;;;;;;;;;;;;-144.99;99.44;52523.50;5049816;28;19986;-60
2021/09/24 04:13:22;;;;;;;;;;;;;;;-144.99;99.85;52513.31;5052865;28;20016;-60
2021/09/24 04:15:49;;;;;;;;;;;;;;;-144.99;99.90;52470.50;5051507;28;20072;-59
2021/09/24 04:18:15;;;;;;;;;;;;;;;-144.99;100.00;52513.31;5052237;28;19992;-61
2021/09/24 04:20:43;;;;;;;;;;;;;;;-144.99;100.00;52462.34;5049567;28;20436;-59
2021/09/24 04:23:09;;;;;;;;;;;;;;;-144.99;100.00;52497.00;5053269;28;19971;-61
2021/09/24 04:25:36;;;;;;;;;;;;;;;-144.99;100.00;52509.25;5050808;28;19970;-59
2021/09/24 04:28:02;;;;;;;;;;;;;;;-144.99;100.00;52492.94;5051880;28;19961;-61
2021/09/24 04:30:30;;;;;;;;;;;;;;;-144.99;100.00;52497.00;5051022;28;20018;-59
2021/09/24 04:32:56;;;;;;;;;;;;;;;-144.99;100.00;52501.09;5049861;28;20440;-58
2021/09/24 04:35:24;;;;;;;;;;;;;;;-144.99;100.00;52476.63;5052709;28;19977;-59
2021/09/24 04:37:50;;;;;;;;;;;;;;;-144.99;100.00;52527.59;5050565;28;20385;-60
2021/09/24 04:40:19;;;;;;;;;;;;;;;-144.99;100.00;52505.16;5049846;28;20064;-60
2021/09/24 04:42:46;;;;;;;;;;;;;;;-144.99;100.00;52492.94;5049684;28;19969;-61
2021/09/24 04:45:12;;;;;;;;;;;;;;;-144.99;100.00;52484.78;5047061;28;19978;-60
2021/09/24 04:47:40;;;;;;;;;;;;;;;-144.99;100.00;52488.84;5043448;28;19962;-60
2021/09/24 04:50:07;;;;;;;;;;;;;;;-144.99;100.00;52497.00;5050947;28;19971;-65
2021/09/24 04:52:34;;;;;;;;;;;;;;;-144.99;100.00;52492.94;5050488;28;20022;-65
2021/09/24 04:55:00;;;;;;;;;;;;;;;-144.99;100.00;52501.09;5053281;28;19977;-65
2021/09/24 04:57:27;;;;;;;;;;;;;;;-144.99;100.00;52513.31;5052715;28;19990;-67
2021/09/24 04:59:53;;;;;;;;;;;;;;;-144.99;100.00;52497.00;5050385;28;20484;-66
2021/09/24 05:02:20;;;;;;;;;;;;;;;-144.99;100.00;52505.16;5044681;28;19977;-66
2021/09/24 05:04:47;;;;;;;;;;;;;;;-144.99;100.00;52505.16;5050689;28;19980;-66
2021/09/24 05:07:14;;;;;;;;;;;;;;;-144.99;100.00;52501.09;5052317;28;19993;-66
2021/09/24 05:09:40;;;;;;;;;;;;;;;-144.99;100.00;52474.59;5049259;28;19977;-64
2021/09/24 05:12:07;;;;;;;;;;;;;;;-144.99;100.00;52497.00;5050451;28;19985;-66
2021/09/24 05:14:33;;;;;;;;;;;;;;;-144.99;100.00;52509.25;5050763;28;19971;-60
2021/09/24 05:17:00;;;;;;;;;;;;;;;-144.99;100.00;52497.00;5051845;28;20387;-60
2021/09/24 05:19:26;;;;;;;;;;;;;;;-144.99;100.00;52482.75;5050977;28;20211;-60
2021/09/24 05:21:54;;;;;;;;;;;;;;;-144.99;100.00;52513.31;5051554;28;20062;-61
2021/09/24 05:24:20;;;;;;;;;;;;;;;-144.99;100.00;52505.16;5050959;28;19980;-60
2021/09/24 05:26:47;;;;;;;;;;;;;;;-144.99;100.00;52468.47;5050831;28;20058;-59
2021/09/24 05:29:13;;;;;;;;;;;;;;;-144.99;100.00;52525.56;5050893;28;19974;-61
2021/09/24 05:31:40;;;;;;;;;;;;;;;-144.99;100.00;52497.00;5050797;28;19983;-61
2021/09/24 05:34:06;;;;;;;;;;;;;;;-144.99;100.00;52446.06;5051612;28;20406;-61
2021/09/24 05:36:32;;;;;;;;;;;;;;;-144.99;100.00;52460.31;5048071;28;20013;-60
2021/09/24 05:39:00;;;;;;;;;;;;;;;-144.99;100.00;52519.44;5050460;28;20268;-60
2021/09/24 05:41:27;;;;;;;;;;;;;;;-144.99;100.00;52476.63;5051294;28;20064;-61
2021/09/24 05:43:53;;;;;;;;;;;;;;;-144.99;100.00;52472.56;5047949;28;19975;-61
2021/09/24 05:46:20;;;;;;;;;;;;;;;-144.99;100.00;52468.47;5050206;28;20364;-61
2021/09/24 05:48:46;;;;;;;;;;;;;;;-144.99;100.00;52476.63;5051489;28;20089;-59
2021/09/24 05:51:13;;;;;;;;;;;;;;;-144.99;100.00;52494.97;5045532;28;20381;-58
2021/09/24 05:53:39;;;;;;;;;;;;;;;-144.99;100.00;52492.94;5050204;28;19971;-60
2021/09/24 05:56:07;;;;;;;;;;;;;;;-144.99;100.00;52458.28;5049204;28;19993;-58
2021/09/24 05:58:34;;;;;;;;;;;;;;;-144.99;100.00;52433.81;5050375;28;19997;-64
2021/09/24 06:01:01;;;;;;;;;;;;;;;-144.99;100.00;52456.25;5050633;28;19982;-62
2021/09/24 06:03:27;;;;;;;;;;;;;;;-144.99;100.00;52505.16;5051609;28;19975;-62
2021/09/24 06:05:54;;;;;;;;;;;;;;;-144.99;100.00;52494.97;5049399;28;20417;-63
2021/09/24 06:08:20;;;;;;;;;;;;;;;-144.99;100.00;52476.63;5048183;28;19994;-63
2021/09/24 06:10:46;;;;;;;;;;;;;;;-144.99;100.00;52484.78;5051520;28;19978;-61
2021/09/24 06:13:14;;;;;;;;;;;;;;;-144.99;100.00;52515.34;5047559;28;19997;-63
2021/09/24 06:15:42;;;;;;;;;;;;;;;-144.99;100.00;52484.78;5051334;28;20497;-59
2021/09/24 06:18:08;;;;;;;;;;;;;;;-144.99;100.00;52484.78;5042621;28;20074;-59
2021/09/24 06:20:34;;;;;;;;;;;;;;;-144.99;100.00;52497.00;5048710;28;19983;-58
2021/09/24 06:23:01;;;;;;;;;;;;;;;-144.99;100.00;52444.03;5050166;28;20516;-59
2021/09/24 06:25:28;;;;;;;;;;;;;;;-144.99;100.00;52448.09;5048879;28;20341;-60
2021/09/24 06:27:54;;;;;;;;;;;;;;;-144.99;100.00;52446.06;5049067;28;19991;-61
2021/09/24 06:30:23;;;;;;;;;;;;;;;-144.99;100.00;52501.09;5048110;28;20063;-63
2021/09/24 06:32:49;;;;;;;;;;;;;;;-144.99;100.00;52456.25;5046632;28;19988;-62
2021/09/24 06:35:16;;;;;;;;;;;;;;;-144.99;100.00;52509.25;5050525;28;20032;-67
2021/09/24 06:37:43;;;;;;;;;;;;;;;-144.99;100.00;52468.47;5050479;28;20003;-67
2021/09/24 06:40:10;;;;;;;;;;;;;;;-144.99;100.00;52441.97;5049531;28;20843;-67
2021/09/24 06:42:37;;;;;;;;;;;;;;;-144.99;100.00;52492.94;5050600;28;19980;-67
2021/09/24 06:45:04;;;;;;;;;;;;;;;-144.99;100.00;52501.09;5051446;28;19988;-67
2021/09/24 06:47:32;;;;;;;;;;;;;;;-144.99;100.00;52505.16;5038458;28;19990;-67
2021/09/24 06:49:58;;;;;;;;;;;;;;;-144.99;100.00;52488.84;5046208;22;19997;-72
2021/09/24 06:52:24;;;;;;;;;;;;;;;-144.99;100.00;52423.63;5026515;28;20115;-72
2021/09/24 06:54:51;;;;;;;;;;;;;;;-144.99;100.00;52480.72;5032064;28;19985;-69
2021/09/24 06:57:18;;;;;;;;;;;;;;;-144.99;100.00;52460.31;5025563;28;20027;-70
2021/09/24 06:59:44;;;;;;;;;;;;;;;-144.99;100.00;52439.94;5031030;28;20492;-70
2021/09/24 07:02:11;;;;;;;;;;;;;;;-144.99;100.00;52409.38;5022189;28;20080;-74
2021/09/24 07:04:39;;;;;;;;;;;;;;;-144.99;100.00;52423.63;5038865;28;20468;-76
2021/09/24 07:07:05;;;;;;;;;;;;;;;-144.99;100.00;52435.88;5034430;28;19981;-75
2021/09/24 07:09:31;;;;;;;;;;;;;;;-144.99;100.00;52448.09;5026283;28;20550;-74
2021/09/24 07:11:58;;;;;;;;;;;;;;;-144.99;100.00;52441.97;5030236;28;20111;-74
2021/09/24 07:14:24;;;;;;;;;;;;;;;-144.99;100.00;52462.34;5022968;28;20005;-75
2021/09/24 07:16:51;;;;;;;;;;;;;;;-144.99;100.00;52415.47;5025018;28;19981;-74
2021/09/24 07:19:17;;;;;;;;;;;;;;;-144.99;100.00;52448.09;5024843;28;20088;-74
2021/09/24 07:21:45;;;;;;;;;;;;;;;-144.99;100.00;52458.28;5029078;28;20412;-71
2021/09/24 07:24:12;;;;;;;;;;;;;;;-144.99;100.00;52452.16;5032320;28;19984;-74
2021/09/24 07:26:38;;;;;;;;;;;;;;;-144.99;100.00;52452.16;5020550;28;20547;-74
2021/09/24 07:29:05;;;;;;;;;;;;;;;-144.99;100.00;52411.41;5025233;28;20412;-74
2021/09/24 07:31:31;;;;;;;;;;;;;;;-144.99;100.00;52448.09;5026014;28;20378;-74
2021/09/24 07:33:58;;;;;;;;;;;;;;;-144.99;100.00;52444.03;5028998;28;20000;-74
2021/09/24 07:36:24;;;;;;;;;;;;;;;-144.99;100.00;52452.16;5034877;28;20021;-76
2021/09/24 07:38:52;;;;;;;;;;;;;;;-144.99;100.00;52444.03;5030636;28;20076;-73
2021/09/24 07:41:20;;;;;;;;;;;;;;;-144.99;100.00;52423.63;5031490;28;20416;-75
2021/09/24 07:43:48;;;;;;;;;;;;;;;-144.99;100.00;52450.13;5039309;28;20068;-73
2021/09/24 07:46:14;;;;;;;;;;;;;;;-144.99;100.00;52417.53;5026430;28;19984;-75
2021/09/24 07:48:42;;;;;;;;;;;;;;;-144.99;100.00;52415.47;5025795;28;19986;-74
2021/09/24 07:51:08;;;;;;;;;;;;;;;-144.99;100.00;52466.44;5027643;28;20039;-74
2021/09/24 07:53:35;;;;;;;;;;;;;;;-144.99;100.00;52439.94;5037321;28;20424;-75
2021/09/24 07:56:03;;;;;;;;;;;;;;;-144.99;100.00;52409.38;5024303;28;20503;-75
2021/09/24 07:58:29;;;;;;;;;;;;;;;-144.99;100.00;52431.78;5026024;28;20076;-73
2021/09/24 08:00:55;;;;;;;;;;;;;;;-144.99;100.00;52435.88;5023211;28;20545;-75
2021/09/24 08:03:22;;;;;;;;;;;;;;;-144.99;100.00;52439.94;5032965;28;20373;-77
2021/09/24 08:05:48;;;;;;;;;;;;;;;-144.99;100.00;52399.19;5033903;28;19992;-73
2021/09/24 08:08:15;;;;;;;;;;;;;;;-144.99;100.00;52419.56;5025971;28;19987;-76
2021/09/24 08:10:41;;;;;;;;;;;;;;;-144.99;100.00;52431.78;5026551;28;20062;-75
2021/09/24 08:13:09;;;;;;;;;;;;;;;-144.99;100.00;52399.19;5034863;28;20468;-75
2021/09/24 08:15:41;;;;;;;;;;;;;;;-144.99;100.00;52401.22;5025566;28;19970;-75
2021/09/24 08:18:08;;;;;;;;;;;;;;;-144.99;100.00;52435.88;5025297;28;20525;-75
2021/09/24 08:20:34;;;;;;;;;;;;;;;-144.99;100.00;52431.78;5023220;28;20462;-77
2021/09/24 08:23:01;;;;;;;;;;;;;;;-144.99;100.00;52407.31;5025352;28;19973;-75
2021/09/24 08:25:27;;;;;;;;;;;;;;;-144.99;100.00;52429.75;5033210;28;19977;-75
2021/09/24 08:27:54;;;;;;;;;;;;;;;-144.99;100.00;52435.88;5033211;28;20004;-73
2021/09/24 08:30:23;;;;;;;;;;;;;;;-144.99;100.00;52423.63;5024998;28;20333;-76
2021/09/24 08:32:50;;;;;;;;;;;;;;;-144.99;100.00;52399.19;5024502;28;19997;-75
2021/09/24 08:35:21;;;;;;;;;;;;;;;-144.99;100.00;52435.88;5031481;28;19984;-73
2021/09/24 08:37:49;;;;;;;;;;;;;;;-144.99;100.00;52421.59;5032227;28;19981;-75
2021/09/24 08:40:16;;;;;;;;;;;;;;;-144.99;100.00;52403.25;5031058;28;20432;-74
2021/09/24 08:42:43;;;;;;;;;;;;;;;-144.99;100.00;52448.09;5029981;28;20472;-72
2021/09/24 08:45:11;;;;;;;;;;;;;;;-144.99;100.00;52395.09;5033410;28;20010;-74
2021/09/24 08:47:38;;;;;;;;;;;;;;;-144.99;100.00;52386.94;5028882;28;20084;-75
2021/09/24 08:50:06;;;;;;;;;;;;;;;-144.99;100.00;52382.88;5028139;28;20374;-75
2021/09/24 08:52:33;;;;;;;;;;;;;;;-144.99;100.00;52374.72;5030003;28;20020;-76
2021/09/24 08:54:59;;;;;;;;;;;;;;;-144.99;100.00;52448.09;5042113;28;19977;-76
2021/09/24 08:57:26;;;;;;;;;;;;;;;-144.99;100.00;52393.06;5026716;28;20000;-75
2021/09/24 08:59:52;;;;;;;;;;;;;;;-144.99;100.00;52364.53;5028646;28;20559;-76
2021/09/24 09:02:18;;;;;;;;;;;;;;;-144.99;100.00;52427.72;5027025;28;20012;-75
2021/09/24 09:04:46;;;;;;;;;;;;;;;-144.99;100.00;52423.63;5041357;28;19995;-75
2021/09/24 09:07:13;;;;;;;;;;;;;;;-144.99;100.00;52431.78;5035680;28;19978;-74
2021/09/24 09:09:41;;;;;;;;;;;;;;;-144.99;100.00;52427.72;5028198;28;20023;-74
2021/09/24 09:12:14;;;;;;;;;;;;;;;-144.99;100.00;52407.31;5035362;28;19993;-76
2021/09/24 09:14:41;;;;;;;;;;;;;;;-144.99;100.00;52423.63;5038245;28;19988;-74
2021/09/24 09:17:26;;;;;;;;;;;;;;;-144.99;100.00;52425.66;5037110;28;20016;-76
2021/09/24 09:20:08;;;;;;;;;;;;;;;-144.99;100.00;52399.19;5027789;28;19990;-75
2021/09/24 09:22:36;;;;;;;;;;;;;;;-144.99;100.00;52476.63;5040903;28;20431;-72
2021/09/24 09:25:02;;;;;;;;;;;;;;;-144.99;100.00;52395.09;5043123;28;19973;-76
2021/09/24 09:27:28;;;;;;;;;;;;;;;-144.99;100.00;52403.25;5027108;28;20427;-76
2021/09/24 09:29:58;;;;;;;;;;;;;;;-144.99;100.00;52374.72;5027435;28;20005;-76
2021/09/24 09:32:25;;;;;;;;;;;;;;;-144.99;100.00;52370.63;5027974;28;20076;-75
2021/09/24 09:34:51;;;;;;;;;;;;;;;-144.99;100.00;52431.78;5030018;28;20126;-73
2021/09/24 09:37:19;;;;;;;;;;;;;;;-144.99;100.00;52417.53;5027657;28;19980;-76
2021/09/24 09:40:01;;;;;;;;;;;;;;;-144.99;100.00;52433.81;5039241;28;19988;-75
2021/09/24 09:42:31;;;;;;;;;;;;;;;-144.99;100.00;52415.47;5028206;28;19988;-75
2021/09/24 09:44:57;;;;;;;;;;;;;;;-144.99;100.00;52391.03;5028016;28;20076;-74
2021/09/24 09:47:28;;;;;;;;;;;;;;;-144.99;100.00;52403.25;5025230;28;19998;-73
2021/09/24 09:50:04;;;;;;;;;;;;;;;-144.99;100.00;52423.63;5033639;28;19997;-73
2021/09/24 09:52:32;;;;;;;;;;;;;;;-144.99;100.00;52399.19;5037248;28;20073;-75
2021/09/24 09:55:02;;;;;;;;;;;;;;;-144.99;100.00;52407.31;5036218;28;19973;-75
2021/09/24 09:57:28;;;;;;;;;;;;;;;-144.99;100.00;52427.72;5026850;28;19989;-75
2021/09/24 09:59:56;;;;;;;;;;;;;;;-144.99;100.00;52399.19;5031508;28;19989;-75
2021/09/24 10:02:24;;;;;;;;;;;;;;;-144.99;100.00;52399.19;5035777;28;19980;-73
2021/09/24 10:04:52;;;;;;;;;;;;;;;-144.99;100.00;52425.66;5027729;28;20075;-77
2021/09/24 10:07:20;;;;;;;;;;;;;;;-144.99;100.00;52401.22;5025646;28;20070;-75
2021/09/24 10:09:48;;;;;;;;;;;;;;;-144.99;100.00;52423.63;5034544;28;19993;-74
2021/09/24 10:12:17;;;;;;;;;;;;;;;-144.99;100.00;52435.88;5017393;28;20452;-75
2021/09/24 10:14:43;;;;;;;;;;;;;;;-144.99;100.00;52399.19;5028004;28;19985;-77
2021/09/24 10:17:10;;;;;;;;;;;;;;;-144.99;100.00;52362.50;5025999;28;20072;-76
2021/09/24 10:19:36;;;;;;;;;;;;;;;-144.99;100.00;52382.88;5034915;28;19989;-76
2021/09/24 10:22:03;;;;;;;;;;;;;;;-144.99;100.00;52397.13;5039719;28;19996;-75
2021/09/24 10:24:29;;;;;;;;;;;;;;;-144.99;100.00;52386.94;5026055;28;20425;-74
2021/09/24 10:26:58;;;;;;;;;;;;;;;-144.99;100.00;52386.94;5031055;28;19978;-77
2021/09/24 10:29:29;;;;;;;;;;;;;;;-144.99;100.00;52374.72;4331618;28;10000747;-75
2021/09/24 10:31:55;;;;;;;;;;;;;;;-144.99;100.00;52374.72;5029949;28;19981;-78
2021/09/24 10:34:28;;;;;;;;;;;;;;;-144.99;100.00;52397.13;5023753;28;20009;-75
2021/09/24 10:36:55;;;;;;;;;;;;;;;-144.99;100.00;52397.13;5023525;28;20011;-77
2021/09/24 10:39:33;;;;;;;;;;;;;;;-144.99;100.00;52407.31;5021541;28;20073;-74
2021/09/24 10:42:20;;;;;;;;;;;;;;;-144.99;100.00;52407.31;5031914;28;20201;-73
2021/09/24 10:45:08;;;;;;;;;;;;;;;-144.99;100.00;52393.06;5023549;28;20031;-77
2021/09/24 10:47:59;;;;;;;;;;;;;;;-144.99;100.00;52370.63;5022462;28;19978;-76
2021/09/24 10:50:45;;;;;;;;;;;;;;;-144.99;100.00;52415.47;5010899;28;20095;-74
2021/09/24 10:53:13;;;;;;;;;;;;;;;-144.99;100.00;52431.78;5029999;28;20096;-76
2021/09/24 10:55:41;;;;;;;;;;;;;;;-144.99;100.00;52435.88;5022496;28;19971;-73
2021/09/24 10:58:08;;;;;;;;;;;;;;;-144.99;100.00;52386.94;5024237;28;20416;-78
2021/09/24 11:00:36;;;;;;;;;;;;;;;-144.99;100.00;52423.63;5024691;28;19995;-76
2021/09/24 11:03:09;;;;;;;;;;;;;;;-144.99;100.00;52423.63;5029426;28;20575;-78
2021/09/24 11:05:50;;;;;;;;;;;;;;;-144.99;100.00;52378.78;5024598;28;20366;-76
2021/09/24 11:08:32;;;;;;;;;;;;;;;-144.99;100.00;52448.09;5021174;28;19975;-76
2021/09/24 11:11:06;;;;;;;;;;;;;;;-144.99;100.00;52439.94;5018730;28;20113;-76
2021/09/24 11:13:34;;;;;;;;;;;;;;;-144.99;100.00;52423.63;5031891;28;19992;-75
2021/09/24 11:16:03;;;;;;;;;;;;;;;-144.99;100.00;52419.56;5023662;28;20145;-74
2021/09/24 11:18:48;;;;;;;;;;;;;;;-144.99;100.00;52441.97;5021787;28;20406;-73
2021/09/24 11:21:15;;;;;;;;;;;;;;;-144.99;100.00;52403.25;5021554;28;19976;-77
2021/09/24 11:23:42;;;;;;;;;;;;;;;-144.99;100.00;52395.09;5030116;28;20007;-76
2021/09/24 11:26:09;;;;;;;;;;;;;;;-144.99;100.00;52407.31;5021263;28;19994;-75
2021/09/24 11:28:36;;;;;;;;;;;;;;;-144.99;100.00;52427.72;5022721;28;20383;-74
2021/09/24 11:31:04;;;;;;;;;;;;;;;-144.99;100.00;52431.78;5024486;28;19981;-75
2021/09/24 11:33:40;;;;;;;;;;;;;;;-144.99;100.00;52382.88;5029093;28;20001;-74
2021/09/24 11:36:07;;;;;;;;;;;;;;;-144.99;100.00;52415.47;5019499;28;21293;-75
2021/09/24 11:38:34;;;;;;;;;;;;;;;-144.99;100.00;52386.94;5027007;28;19977;-73
2021/09/24 11:41:00;;;;;;;;;;;;;;;-144.99;100.00;52444.03;5023571;28;20406;-75
2021/09/24 11:43:28;;;;;;;;;;;;;;;-144.99;100.00;52366.56;5022899;28;20157;-75
2021/09/24 11:45:55;;;;;;;;;;;;;;;-144.99;100.00;52378.78;5022472;28;20083;-74
2021/09/24 11:48:31;;;;;;;;;;;;;;;-144.99;100.00;52386.94;5030453;28;20379;-75
2021/09/24 11:51:07;;;;;;;;;;;;;;;-144.99;100.00;52391.03;5020872;28;19979;-75
2021/09/24 11:53:43;;;;;;;;;;;;;;;-144.99;100.00;52366.56;5035976;28;20502;-74
2021/09/24 11:56:09;;;;;;;;;;;;;;;-144.99;100.00;52413.44;5008680;28;19994;-74
2021/09/24 11:58:35;;;;;;;;;;;;;;;-144.99;100.00;52415.47;5029493;28;19973;-75
2021/09/24 12:01:02;;;;;;;;;;;;;;;-144.99;100.00;52391.03;5028498;28;20375;-75
2021/09/24 12:03:30;;;;;;;;;;;;;;;-144.99;100.00;52362.50;5020798;28;20023;-75
2021/09/24 12:05:58;;;;;;;;;;;;;;;-144.99;100.00;52370.63;5032825;28;19976;-76
2021/09/24 12:08:26;;;;;;;;;;;;;;;-144.99;100.00;52395.09;5023976;28;19986;-76
2021/09/24 12:10:56;;;;;;;;;;;;;;;-144.99;100.00;52342.09;5022030;28;20002;-77
2021/09/24 12:13:23;;;;;;;;;;;;;;;-144.99;100.00;52388.97;5026477;28;20074;-76
2021/09/24 12:15:57;;;;;;;;;;;;;;;-144.99;100.00;52356.38;5033247;28;20075;-76
2021/09/24 12:18:23;;;;;;;;;;;;;;;-144.99;100.00;52391.03;5025498;28;19959;-74
2021/09/24 12:21:00;;;;;;;;;;;;;;;-144.99;99.93;52395.09;5026552;28;20707;-72
2021/09/24 12:23:26;;;;;;;;;;;;;;;-144.99;100.00;52344.16;5024926;28;20421;-76